createdAt,value
2023-03-12T00:00:54.091Z,61.66
2023-03-12T00:03:20.808Z,62.47
2023-03-12T00:05:47.568Z,62.11
2023-03-12T00:08:14.249Z,62.11
2023-03-12T00:10:40.948Z,61.58
2023-03-12T00:13:08.138Z,62.08
2023-03-12T00:15:38.230Z,62.42
2023-03-12T00:18:05.042Z,61.83
2023-03-12T00:20:31.788Z,61.81
2023-03-12T00:22:58.394Z,61.22
2023-03-12T00:25:25.026Z,61.60
2023-03-12T00:27:51.741Z,61.87
2023-03-12T00:30:18.480Z,61.84
2023-03-12T00:32:45.204Z,62.11
2023-03-12T00:35:13.085Z,61.93
2023-03-12T00:37:39.762Z,62.11
2023-03-12T00:40:07.337Z,61.96
2023-03-12T00:42:33.969Z,62.23
2023-03-12T00:45:00.711Z,61.98
2023-03-12T00:47:27.427Z,62.18
2023-03-12T00:49:54.107Z,62.77
2023-03-12T00:52:20.714Z,61.70
2023-03-12T00:54:47.488Z,62.46
2023-03-12T00:57:14.109Z,62.39
2023-03-12T00:59:40.732Z,62.73
2023-03-12T01:02:08.225Z,62.19
2023-03-12T01:04:34.949Z,62.08
2023-03-12T01:07:01.632Z,62.21
2023-03-12T01:09:28.246Z,61.72
2023-03-12T01:11:54.906Z,61.80
2023-03-12T01:14:21.591Z,62.11
2023-03-12T01:16:49.838Z,61.46
2023-03-12T01:19:18.432Z,62.01
2023-03-12T01:21:45.105Z,61.61
2023-03-12T01:24:11.749Z,62.32
2023-03-12T01:26:38.372Z,61.52
2023-03-12T01:29:05.010Z,62.22
2023-03-12T01:31:31.714Z,62.28
2023-03-12T01:33:58.408Z,62.65
2023-03-12T01:36:26.531Z,62.11
2023-03-12T01:38:54.149Z,62.53
2023-03-12T01:41:21.083Z,62.41
2023-03-12T01:43:47.760Z,61.89
2023-03-12T01:46:36.268Z,62.68
2023-03-12T01:49:31.839Z,62.25
2023-03-12T01:52:01.478Z,62.89
2023-03-12T01:54:58.134Z,63.26
2023-03-12T01:57:28.950Z,63.45
2023-03-12T02:00:01.003Z,63.63
2023-03-12T02:02:27.706Z,63.49
2023-03-12T02:05:30.591Z,63.59
2023-03-12T02:07:57.276Z,63.23
2023-03-12T02:10:24.384Z,63.08
2023-03-12T02:12:51.130Z,62.39
2023-03-12T02:15:17.844Z,62.52
2023-03-12T02:17:44.490Z,62.79
2023-03-12T02:20:21.025Z,62.54
2023-03-12T02:23:08.356Z,62.95
2023-03-12T02:25:46.150Z,62.91
2023-03-12T02:28:13.898Z,62.83
2023-03-12T02:30:41.901Z,63.06
2023-03-12T02:33:09.631Z,62.55
2023-03-12T02:35:36.574Z,62.43
2023-03-12T02:38:03.365Z,62.66
2023-03-12T02:40:41.415Z,63.74
2023-03-12T02:43:08.463Z,63.30
2023-03-12T02:45:36.004Z,63.32
2023-03-12T02:48:03.897Z,62.97
2023-03-12T02:50:30.584Z,63.05
2023-03-12T02:52:57.224Z,63.11
2023-03-12T02:55:23.942Z,63.41
2023-03-12T02:57:50.570Z,64.09
2023-03-12T03:00:17.688Z,63.20
2023-03-12T03:02:44.353Z,63.28
2023-03-12T03:05:11.084Z,63.28
2023-03-12T03:07:37.889Z,63.32
2023-03-12T03:10:05.459Z,63.51
2023-03-12T03:12:32.527Z,63.44
2023-03-12T03:14:59.133Z,63.98
2023-03-12T03:17:25.815Z,63.40
2023-03-12T03:19:52.487Z,63.31
2023-03-12T03:22:19.818Z,63.18
2023-03-12T03:24:46.507Z,63.73
2023-03-12T03:27:13.502Z,63.85
2023-03-12T03:29:40.108Z,64.46
2023-03-12T03:32:06.921Z,64.16
2023-03-12T03:34:33.551Z,64.52
2023-03-12T03:37:00.172Z,64.26
2023-03-12T03:39:28.907Z,64.16
2023-03-12T03:41:55.590Z,64.14
2023-03-12T03:44:22.238Z,64.35
2023-03-12T03:46:49.367Z,64.38
2023-03-12T03:49:16.036Z,63.87
2023-03-12T03:51:42.882Z,63.53
2023-03-12T03:54:10.200Z,63.61
2023-03-12T03:56:36.857Z,63.85
2023-03-12T03:59:03.562Z,63.19
2023-03-12T04:01:30.311Z,62.69
2023-03-12T04:03:58.282Z,63.28
2023-03-12T04:06:24.896Z,63.23
2023-03-12T04:08:51.563Z,63.00
2023-03-12T04:11:19.498Z,63.56
2023-03-12T04:13:46.243Z,64.38
2023-03-12T04:16:13.072Z,65.08
2023-03-12T04:18:39.809Z,65.40
2023-03-12T04:21:07.523Z,65.24
2023-03-12T04:23:34.724Z,65.59
2023-03-12T04:26:01.397Z,65.79
2023-03-12T04:28:28.110Z,65.16
2023-03-12T04:30:56.129Z,65.04
2023-03-12T04:33:22.833Z,65.03
2023-03-12T04:35:53.155Z,64.92
2023-03-12T04:38:24.227Z,64.29
2023-03-12T04:41:07.974Z,64.64
2023-03-12T04:43:34.715Z,64.49
2023-03-12T04:46:01.370Z,64.58
2023-03-12T04:48:27.993Z,64.38
2023-03-12T04:50:54.647Z,64.84
2023-03-12T04:53:21.562Z,64.98
2023-03-12T04:55:48.220Z,64.51
2023-03-12T04:58:14.826Z,64.50
2023-03-12T05:00:41.541Z,64.27
2023-03-12T05:03:08.257Z,64.33
2023-03-12T05:05:35.113Z,64.40
2023-03-12T05:08:02.433Z,64.05
2023-03-12T05:10:29.086Z,64.34
2023-03-12T05:12:55.736Z,64.25
2023-03-12T05:15:22.429Z,64.61
2023-03-12T05:17:49.127Z,64.97
2023-03-12T05:20:15.783Z,64.97
2023-03-12T05:22:42.471Z,65.35
2023-03-12T05:25:09.691Z,65.74
2023-03-12T05:27:36.450Z,65.65
2023-03-12T05:30:04.421Z,65.03
2023-03-12T05:32:31.597Z,65.02
2023-03-12T05:34:58.263Z,65.01
2023-03-12T05:37:24.900Z,64.83
2023-03-12T05:39:53.501Z,64.88
2023-03-12T05:42:20.099Z,65.22
2023-03-12T05:44:46.711Z,65.38
2023-03-12T05:47:13.323Z,64.97
2023-03-12T05:49:39.916Z,64.67
2023-03-12T05:52:06.745Z,65.74
2023-03-12T05:54:33.480Z,65.43
2023-03-12T05:57:00.407Z,65.34
2023-03-12T05:59:27.197Z,64.86
2023-03-12T06:01:53.952Z,65.05
2023-03-12T06:04:20.653Z,65.43
2023-03-12T06:06:47.287Z,65.62
2023-03-12T06:09:13.891Z,65.57
2023-03-12T06:11:40.853Z,65.59
2023-03-12T06:14:07.526Z,65.03
2023-03-12T06:16:34.190Z,64.97
2023-03-12T06:19:01.757Z,65.17
2023-03-12T06:21:30.234Z,65.48
2023-03-12T06:23:57.757Z,65.57
2023-03-12T06:26:24.453Z,64.84
2023-03-12T06:28:51.234Z,64.99
2023-03-12T06:31:18.750Z,65.12
2023-03-12T06:33:45.422Z,65.00
2023-03-12T06:36:12.657Z,64.91
2023-03-12T06:38:39.353Z,64.81
2023-03-12T06:41:14.302Z,64.97
2023-03-12T06:43:41.014Z,64.76
2023-03-12T06:46:08.589Z,64.47
2023-03-12T06:48:35.545Z,64.34
2023-03-12T06:51:05.027Z,64.26
2023-03-12T06:53:31.957Z,64.38
2023-03-12T06:55:58.653Z,64.56
2023-03-12T06:58:25.331Z,64.26
2023-03-12T07:00:52.363Z,64.12
2023-03-12T07:03:19.162Z,64.57
2023-03-12T07:05:46.792Z,64.28
2023-03-12T07:08:13.558Z,63.20
2023-03-12T07:10:40.209Z,63.78
2023-03-12T07:13:06.889Z,63.64
2023-03-12T07:15:33.639Z,64.08
2023-03-12T07:18:10.990Z,64.23
2023-03-12T07:20:38.773Z,64.62
2023-03-12T07:23:05.411Z,64.26
2023-03-12T07:25:34.627Z,64.30
2023-03-12T07:28:01.272Z,63.81
2023-03-12T07:30:27.880Z,63.39
2023-03-12T07:32:54.584Z,63.91
2023-03-12T07:35:21.302Z,63.95
2023-03-12T07:37:49.706Z,64.09
2023-03-12T07:40:16.369Z,64.37
2023-03-12T07:42:43.019Z,64.42
2023-03-12T07:45:10.008Z,64.39
2023-03-12T07:47:36.727Z,64.10
2023-03-12T07:50:03.617Z,64.79
2023-03-12T07:52:30.513Z,64.70
2023-03-12T07:54:57.227Z,64.93
2023-03-12T07:57:24.061Z,64.72
2023-03-12T07:59:50.739Z,64.47
2023-03-12T08:02:17.609Z,64.00
2023-03-12T08:04:44.384Z,64.03
2023-03-12T08:07:11.052Z,64.24
2023-03-12T08:09:38.355Z,63.96
2023-03-12T08:12:06.361Z,64.43
2023-03-12T08:14:33.298Z,64.58
2023-03-12T08:17:00.099Z,64.23
2023-03-12T08:19:27.393Z,63.87
2023-03-12T08:21:54.131Z,64.18
2023-03-12T08:24:22.498Z,63.66
2023-03-12T08:26:49.140Z,64.28
2023-03-12T08:29:16.345Z,63.98
2023-03-12T08:31:57.437Z,63.34
2023-03-12T08:34:29.710Z,63.26
2023-03-12T08:36:56.360Z,62.99
2023-03-12T08:39:22.971Z,63.45
2023-03-12T08:41:49.624Z,62.63
2023-03-12T08:44:16.269Z,61.70
2023-03-12T08:46:42.886Z,62.25
2023-03-12T08:49:09.494Z,62.76
2023-03-12T08:51:36.148Z,62.14
2023-03-12T08:54:02.808Z,62.21
2023-03-12T08:56:29.543Z,61.20
2023-03-12T08:58:56.139Z,61.07
2023-03-12T09:01:22.801Z,61.70
2023-03-12T09:03:49.483Z,61.45
2023-03-12T09:06:16.128Z,59.78
2023-03-12T09:08:43.049Z,61.38
2023-03-12T09:11:10.779Z,59.99
2023-03-12T09:13:58.842Z,59.50
2023-03-12T09:16:24.196Z,59.28
2023-03-12T09:18:50.894Z,59.62
2023-03-12T09:21:17.550Z,58.72
2023-03-12T09:23:44.147Z,58.80
2023-03-12T09:26:11.487Z,59.51
2023-03-12T09:28:38.131Z,59.37
2023-03-12T09:31:05.069Z,60.45
2023-03-12T09:33:32.579Z,58.95
2023-03-12T09:35:59.474Z,57.90
2023-03-12T09:38:26.353Z,58.21
2023-03-12T09:40:52.994Z,58.42
2023-03-12T09:43:25.428Z,58.99
2023-03-12T09:45:52.115Z,58.71
2023-03-12T09:48:22.401Z,58.29
2023-03-12T09:50:49.737Z,57.72
2023-03-12T09:53:40.495Z,57.77
2023-03-12T09:56:11.949Z,57.26
2023-03-12T09:58:38.641Z,57.97
2023-03-12T10:01:26.396Z,57.80
2023-03-12T10:04:11.834Z,57.80
2023-03-12T10:06:55.691Z,56.25
2023-03-12T10:09:34.457Z,56.25
2023-03-12T10:12:22.229Z,55.11
2023-03-12T10:14:54.843Z,55.83
2023-03-12T10:17:45.390Z,55.18
2023-03-12T10:20:40.952Z,53.05
2023-03-12T10:23:36.330Z,54.69
2023-03-12T10:26:10.457Z,54.74
2023-03-12T10:29:01.712Z,52.68
2023-03-12T10:31:28.281Z,53.09
2023-03-12T10:33:59.208Z,51.11
2023-03-12T10:36:37.092Z,53.97
2023-03-12T10:39:04.207Z,51.89
2023-03-12T10:41:34.550Z,52.34
2023-03-12T10:44:06.184Z,52.46
2023-03-12T10:46:41.948Z,51.96
2023-03-12T10:49:24.254Z,52.01
2023-03-12T10:52:06.028Z,52.04
2023-03-12T10:54:38.780Z,52.36
2023-03-12T10:57:05.405Z,51.87
2023-03-12T10:59:34.117Z,49.35
2023-03-12T11:02:00.758Z,49.98
2023-03-12T11:04:30.442Z,50.81
2023-03-12T11:07:12.368Z,50.06
2023-03-12T11:09:38.976Z,51.79
2023-03-12T11:12:25.224Z,51.02
2023-03-12T11:14:51.909Z,50.29
2023-03-12T11:17:28.865Z,50.28
2023-03-12T11:19:55.474Z,49.74
2023-03-12T11:22:33.352Z,49.51
2023-03-12T11:25:01.648Z,49.87
2023-03-12T11:27:48.001Z,49.74
2023-03-12T11:30:15.973Z,50.86
2023-03-12T11:32:45.603Z,49.57
2023-03-12T11:35:17.392Z,50.21
2023-03-12T11:37:59.048Z,49.45
2023-03-12T11:40:28.421Z,50.92
2023-03-12T11:43:40.006Z,51.03
2023-03-12T11:46:19.657Z,49.82
2023-03-12T11:48:52.222Z,49.91
2023-03-12T11:51:24.614Z,49.81
2023-03-12T11:54:13.372Z,50.18
2023-03-12T11:56:51.654Z,48.47
2023-03-12T11:59:49.463Z,48.61
2023-03-12T12:02:34.318Z,46.49
2023-03-12T12:05:06.926Z,45.23
2023-03-12T12:07:58.846Z,46.05
2023-03-12T12:10:33.858Z,44.52
2023-03-12T12:13:34.504Z,45.42
2023-03-12T12:16:36.826Z,45.33
2023-03-12T12:19:38.858Z,45.70
2023-03-12T12:22:27.079Z,45.98
2023-03-12T12:25:11.937Z,46.95
2023-03-12T12:28:04.435Z,45.02
2023-03-12T12:30:49.506Z,46.01
2023-03-12T12:33:48.388Z,44.93
2023-03-12T12:36:15.057Z,44.32
2023-03-12T12:38:48.324Z,44.30
2023-03-12T12:41:19.576Z,44.60
2023-03-12T12:43:51.252Z,42.90
2023-03-12T12:46:39.136Z,44.37
2023-03-12T12:49:23.063Z,44.10
2023-03-12T12:51:53.621Z,43.02
2023-03-12T12:54:23.248Z,42.29
2023-03-12T12:57:11.703Z,42.77
2023-03-12T12:59:56.915Z,41.77
2023-03-12T13:02:24.735Z,42.96
2023-03-12T13:04:51.388Z,41.33
2023-03-12T13:07:20.970Z,39.53
2023-03-12T13:09:49.282Z,41.18
2023-03-12T13:12:46.831Z,40.71
2023-03-12T13:15:31.550Z,41.67
2023-03-12T13:17:58.047Z,41.19
2023-03-12T13:20:29.237Z,40.74
2023-03-12T13:23:42.188Z,41.30
2023-03-12T13:26:14.369Z,40.97
2023-03-12T13:28:56.772Z,41.53
2023-03-12T13:31:29.082Z,40.71
2023-03-12T13:33:59.001Z,40.94
2023-03-12T13:36:27.164Z,42.67
2023-03-12T13:38:57.856Z,41.91
2023-03-12T13:41:45.860Z,43.01
2023-03-12T13:44:27.639Z,42.37
2023-03-12T13:47:19.556Z,43.69
2023-03-12T13:49:50.070Z,43.73
2023-03-12T13:52:23.691Z,44.21
2023-03-12T13:55:02.311Z,42.90
2023-03-12T13:57:31.689Z,43.70
2023-03-12T13:59:58.521Z,44.77
2023-03-12T14:02:27.811Z,42.70
2023-03-12T14:04:55.797Z,43.06
2023-03-12T14:08:10.916Z,42.91
2023-03-12T14:10:46.497Z,43.38
2023-03-12T14:13:48.507Z,43.08
2023-03-12T14:16:35.245Z,42.66
2023-03-12T14:19:02.699Z,42.34
2023-03-12T14:21:33.310Z,42.11
2023-03-12T14:23:59.940Z,42.63
2023-03-12T14:26:32.345Z,42.16
2023-03-12T14:29:01.503Z,43.22
2023-03-12T14:31:28.663Z,42.47
2023-03-12T14:34:05.940Z,41.51
2023-03-12T14:36:40.541Z,40.96
2023-03-12T14:39:28.611Z,40.49
2023-03-12T14:41:58.965Z,41.36
2023-03-12T14:44:27.313Z,40.54
2023-03-12T14:47:09.090Z,39.98
2023-03-12T14:49:40.892Z,40.64
2023-03-12T14:52:07.569Z,39.90
2023-03-12T14:54:34.238Z,40.06
2023-03-12T14:57:00.919Z,41.97
2023-03-12T14:59:29.095Z,41.09
2023-03-12T15:02:17.092Z,41.22
2023-03-12T15:04:43.815Z,42.14
2023-03-12T15:07:11.762Z,42.23
2023-03-12T15:09:40.395Z,42.81
2023-03-12T15:12:08.070Z,42.74
2023-03-12T15:14:38.507Z,42.52
2023-03-12T15:17:05.130Z,43.02
2023-03-12T15:19:33.802Z,42.77
2023-03-12T15:22:00.481Z,42.96
2023-03-12T15:24:27.090Z,42.24
2023-03-12T15:26:53.712Z,41.64
2023-03-12T15:29:21.897Z,41.66
2023-03-12T15:31:49.545Z,41.62
2023-03-12T15:34:42.630Z,42.15
2023-03-12T15:37:23.003Z,42.18
2023-03-12T15:39:53.159Z,42.17
2023-03-12T15:42:22.155Z,41.46
2023-03-12T15:44:50.962Z,42.29
2023-03-12T15:47:18.958Z,42.95
2023-03-12T15:49:54.787Z,43.12
2023-03-12T15:52:21.328Z,42.40
2023-03-12T15:55:22.562Z,43.46
2023-03-12T15:57:53.987Z,44.01
2023-03-12T16:00:20.894Z,43.92
2023-03-12T16:02:51.667Z,44.24
2023-03-12T16:05:26.333Z,43.93
2023-03-12T16:07:54.285Z,44.26
2023-03-12T16:10:21.973Z,44.47
2023-03-12T16:12:49.273Z,44.40
2023-03-12T16:15:17.634Z,44.35
2023-03-12T16:17:44.314Z,44.14
2023-03-12T16:20:14.511Z,44.39
2023-03-12T16:22:41.232Z,45.00
2023-03-12T16:25:09.650Z,44.20
2023-03-12T16:27:37.939Z,43.92
2023-03-12T16:30:07.355Z,43.34
2023-03-12T16:32:34.159Z,43.14
2023-03-12T16:35:00.858Z,43.41
2023-03-12T16:37:27.522Z,43.27
2023-03-12T16:39:54.119Z,43.09
2023-03-12T16:42:20.751Z,43.44
2023-03-12T16:44:47.395Z,43.29
2023-03-12T16:47:14.046Z,43.84
2023-03-12T16:49:40.803Z,44.42
2023-03-12T16:52:21.068Z,43.44
2023-03-12T16:54:54.031Z,43.61
2023-03-12T16:57:27.768Z,44.60
2023-03-12T16:59:54.416Z,44.20
2023-03-12T17:02:21.102Z,43.97
2023-03-12T17:04:47.829Z,44.09
2023-03-12T17:07:14.853Z,43.88
2023-03-12T17:09:41.530Z,43.37
2023-03-12T17:12:16.812Z,43.79
2023-03-12T17:14:43.416Z,44.46
2023-03-12T17:17:10.008Z,46.03
2023-03-12T17:19:36.640Z,46.13
2023-03-12T17:22:03.235Z,46.99
2023-03-12T17:24:29.953Z,46.53
2023-03-12T17:26:56.577Z,48.36
2023-03-12T17:29:23.189Z,48.02
2023-03-12T17:31:49.971Z,49.28
2023-03-12T17:34:16.633Z,48.81
2023-03-12T17:36:43.430Z,49.36
2023-03-12T17:39:10.102Z,51.15
2023-03-12T17:41:36.784Z,49.87
2023-03-12T17:44:03.434Z,48.97
2023-03-12T17:46:30.531Z,50.13
2023-03-12T17:48:57.232Z,51.17
2023-03-12T17:51:23.958Z,50.41
2023-03-12T17:53:50.679Z,51.54
2023-03-12T17:56:17.340Z,51.45
2023-03-12T17:58:44.881Z,51.10
2023-03-12T18:01:13.166Z,51.26
2023-03-12T18:03:40.210Z,51.26
2023-03-12T18:06:07.054Z,51.89
2023-03-12T18:08:33.779Z,51.53
2023-03-12T18:11:00.644Z,52.08
2023-03-12T18:13:27.290Z,52.63
2023-03-12T18:15:55.267Z,53.23
2023-03-12T18:18:22.199Z,52.92
2023-03-12T18:20:48.970Z,53.38
2023-03-12T18:23:17.251Z,53.80
2023-03-12T18:25:44.053Z,54.12
2023-03-12T18:28:10.682Z,54.14
2023-03-12T18:30:37.300Z,54.05
2023-03-12T18:33:03.945Z,54.86
2023-03-12T18:35:30.632Z,54.10
2023-03-12T18:37:57.354Z,53.72
2023-03-12T18:40:24.089Z,54.78
2023-03-12T18:42:50.801Z,55.13
2023-03-12T18:45:17.523Z,54.66
2023-03-12T18:47:44.194Z,54.92
2023-03-12T18:50:11.871Z,54.59
2023-03-12T18:52:38.614Z,54.95
2023-03-12T18:55:05.427Z,54.38
2023-03-12T18:57:32.205Z,55.17
2023-03-12T18:59:58.829Z,55.21
2023-03-12T19:02:25.497Z,54.71
2023-03-12T19:04:54.804Z,54.68
2023-03-12T19:07:22.519Z,55.02
2023-03-12T19:09:49.193Z,55.41
2023-03-12T19:12:15.841Z,55.12
2023-03-12T19:14:42.454Z,55.47
2023-03-12T19:17:09.071Z,55.66
2023-03-12T19:19:35.739Z,57.07
2023-03-12T19:22:02.357Z,55.98
2023-03-12T19:24:29.149Z,56.26
2023-03-12T19:26:56.119Z,56.26
2023-03-12T19:29:22.791Z,56.01
2023-03-12T19:31:49.490Z,56.38
2023-03-12T19:34:16.171Z,57.26
2023-03-12T19:36:43.063Z,56.63
2023-03-12T19:39:20.515Z,56.63
2023-03-12T19:41:47.929Z,56.78
2023-03-12T19:44:14.739Z,56.22
2023-03-12T19:46:41.361Z,56.27
2023-03-12T19:49:07.983Z,56.16
2023-03-12T19:51:34.589Z,57.33
2023-03-12T19:54:01.232Z,56.98
2023-03-12T19:56:27.857Z,56.46
2023-03-12T19:58:54.621Z,56.58
2023-03-12T20:01:21.237Z,55.95
2023-03-12T20:03:47.899Z,56.94
2023-03-12T20:06:14.523Z,56.59
2023-03-12T20:08:41.126Z,57.18
2023-03-12T20:11:09.160Z,57.78
2023-03-12T20:13:35.983Z,57.36
2023-03-12T20:16:02.650Z,57.41
2023-03-12T20:18:29.537Z,56.87
2023-03-12T20:20:56.137Z,57.49
2023-03-12T20:23:22.847Z,57.98
2023-03-12T20:25:49.715Z,57.87
2023-03-12T20:28:16.414Z,57.69
2023-03-12T20:30:43.197Z,57.09
2023-03-12T20:33:09.862Z,57.37
2023-03-12T20:35:36.720Z,56.70
2023-03-12T20:38:03.576Z,57.28
2023-03-12T20:40:30.244Z,57.19
2023-03-12T20:42:56.891Z,57.11
2023-03-12T20:45:24.167Z,56.51
2023-03-12T20:47:53.164Z,56.54
2023-03-12T20:50:19.985Z,57.04
2023-03-12T20:52:46.664Z,57.28
2023-03-12T20:55:13.280Z,56.74
2023-03-12T20:57:39.986Z,57.64
2023-03-12T21:00:07.988Z,57.29
2023-03-12T21:02:34.769Z,56.36
2023-03-12T21:05:01.593Z,56.70
2023-03-12T21:07:28.227Z,56.79
2023-03-12T21:09:54.862Z,56.43
2023-03-12T21:12:22.055Z,56.40
2023-03-12T21:14:50.299Z,56.75
2023-03-12T21:17:18.167Z,56.83
2023-03-12T21:19:46.004Z,56.04
2023-03-12T21:22:12.699Z,56.87
2023-03-12T21:24:40.103Z,56.25
2023-03-12T21:27:08.073Z,56.97
2023-03-12T21:29:36.042Z,56.51
2023-03-12T21:32:04.096Z,55.37
2023-03-12T21:34:32.197Z,56.18
2023-03-12T21:37:00.123Z,56.66
2023-03-12T21:39:28.132Z,57.29
2023-03-12T21:41:56.027Z,57.23
2023-03-12T21:44:23.982Z,57.26
2023-03-12T21:46:52.068Z,56.71
2023-03-12T21:49:20.170Z,57.15
2023-03-12T21:51:48.050Z,57.15
2023-03-12T21:54:16.115Z,57.22
2023-03-12T21:56:44.049Z,57.54
2023-03-12T21:59:12.078Z,57.86
2023-03-12T22:01:40.096Z,57.78
2023-03-12T22:04:08.130Z,57.38
2023-03-12T22:06:36.236Z,58.41
2023-03-12T22:09:04.136Z,58.04
2023-03-12T22:11:32.425Z,58.33
2023-03-12T22:14:00.143Z,57.92
2023-03-12T22:16:28.237Z,58.02
2023-03-12T22:18:56.528Z,58.55
2023-03-12T22:21:24.135Z,58.00
2023-03-12T22:23:53.997Z,58.07
2023-03-12T22:26:22.492Z,58.26
2023-03-12T22:28:50.579Z,57.81
2023-03-12T22:31:18.399Z,57.56
2023-03-12T22:33:46.211Z,56.97
2023-03-12T22:36:14.147Z,57.27
2023-03-12T22:38:40.898Z,57.93
2023-03-12T22:41:18.865Z,57.13
2023-03-12T22:43:46.256Z,57.99
2023-03-12T22:46:14.386Z,57.16
2023-03-12T22:48:42.587Z,56.88
2023-03-12T22:51:10.046Z,57.20
2023-03-12T22:53:38.090Z,56.74
2023-03-12T22:56:07.102Z,57.91
2023-03-12T22:58:36.755Z,58.10
2023-03-12T23:01:11.452Z,57.20
2023-03-12T23:03:39.009Z,56.85
2023-03-12T23:06:14.095Z,56.81
2023-03-12T23:08:42.107Z,56.78
2023-03-12T23:11:10.232Z,56.82
2023-03-12T23:13:38.788Z,56.41
2023-03-12T23:16:07.068Z,57.15
2023-03-12T23:18:34.319Z,56.45
2023-03-12T23:21:01.910Z,56.54
2023-03-12T23:23:29.087Z,55.88
2023-03-12T23:25:56.328Z,56.75
2023-03-12T23:28:23.229Z,57.39
2023-03-12T23:31:08.578Z,56.94
2023-03-12T23:33:35.295Z,56.73
2023-03-12T23:36:02.982Z,56.24
2023-03-12T23:38:29.901Z,56.29
2023-03-12T23:41:02.323Z,56.47
2023-03-12T23:43:28.950Z,56.90
2023-03-12T23:46:00.425Z,56.04
2023-03-12T23:48:27.997Z,56.42
2023-03-12T23:50:54.624Z,56.46
2023-03-12T23:53:21.372Z,57.13
2023-03-12T23:55:55.252Z,56.85
2023-03-12T23:58:22.121Z,57.61
